Bei Facebook empfehlenBei Twitter postenGoogle plusPinterest

Das Wetter im Erzgebirge am 20.07.2015

Wetter und Klima am 20.07.2015 Holzhau im Erzgebirge (630m ü.NN)
Letzte gemessene Temperatur und Uhrzeit der Messung23:45:00 Uhr14.80 °C
Temperatur (Maximum / Höchstwert) und Uhrzeit der Messung16:00:00 Uhr23.70 °C
Temperatur (Minimum / Tiefstwert) und Uhrzeit der Messung05:30:0011.40 °C
Errechneter Absolutwert der Temperaturschwankungen zwischen Tmin und Tmax des Tages12.30 K
Errechnete Tagesmitteltemperatur18.18646 °C
Gesamt - Niederschlag des Tages (in flüssiger Form)0.00 Liter / m²
Luftdruck (Maximum / Höchstwert) und Zeitpunkt der Messung13:45:00 Uhr1015.00 hPa
Luftdruck (Minimum / Tiefstwert) und Zeitpunkt der Messung00:15:00 Uhr1011.30 hPa
Errechneter Absolutwert der Luftdruckschwankungen des Tages3.70 hPa
Höchste gemessene Windgeschwindigkeit und Uhrzeit der Messung16:45:00 Uhr6.12 km/h
Errechnete Windhäufigkeit in Relation zu den Messwerten des Tages4.16667 %
Niedrigste Windkühle (Windchill) und Zeitpunkt der Messung05:30:00 Uhr11.40 °C
Taupunkt (Maximum / Höchstwert) und Uhrzeit der Messung16:00:00 Uhr16.20 °C
Taupunkt (Minimum / Tiefstwert) und Uhrzeit der Messung05:15:009.70 °C
Anzahl der automatisch eingelesenen Messwerte 96

Detaillierte Wetter- und Klima- Messwerte für den 20.07.2015 in Holzhau im Erzgebirge (630m ü.NN)
ZeitTemperaturLuftdruckRel. LuftfeuchteWindWindrichtungWindchillTaupunktNiederschlag l/m²
23:45:0014.80 °C1014.50 hPa88.00 %12.80 °C 
23:30:0014.70 °C1014.60 hPa87.00 %12.60 °C 
23:15:0014.90 °C1014.60 hPa87.00 %12.80 °C 
23:00:0015.10 °C1014.60 hPa87.00 %13.00 °C 
22:45:0015.30 °C1014.60 hPa86.00 %13.00 °C 
22:30:0015.30 °C1014.30 hPa85.00 %12.80 °C 
22:15:0015.80 °C1014.50 hPa84.00 %13.10 °C 
22:00:0016.20 °C1014.40 hPa83.00 %13.30 °C 
21:45:0016.60 °C1014.40 hPa81.00 %13.30 °C 
21:30:0017.10 °C1014.40 hPa80.00 %13.60 °C 
21:15:0017.90 °C1014.40 hPa77.00 %13.80 °C 
21:00:0018.70 °C1014.30 hPa75.00 %14.20 °C 
20:45:0019.60 °C1014.40 hPa74.00 %14.80 °C 
20:30:0020.30 °C1014.20 hPa72.00 %15.10 °C 
20:15:0020.90 °C1014.30 hPa71.00 %15.40 °C 
20:00:0021.30 °C1014.20 hPa70.00 %15.60 °C 
19:45:0021.80 °C1014.20 hPa69.00 %15.90 °C 
19:30:0021.80 °C1014.40 hPa70.00 %16.10 °C 
19:15:0021.80 °C1014.30 hPa69.00 %15.90 °C 
19:00:0021.80 °C1014.50 hPa70.00 %16.10 °C 
18:45:0021.50 °C1014.40 hPa69.00 %15.60 °C 
18:30:0021.60 °C1014.40 hPa69.00 %15.70 °C 
18:15:0022.00 °C1014.40 hPa68.00 %15.80 °C 
18:00:0022.10 °C1014.40 hPa67.00 %15.70 °C 
17:45:0022.30 °C1014.60 hPa68.00 %16.10 °C 
17:30:0022.20 °C1014.40 hPa68.00 %16.00 °C 
17:15:0021.90 °C1014.50 hPa68.00 %15.70 °C 
17:00:0021.80 °C1014.60 hPa67.00 %15.40 °C 
16:45:0022.10 °C1014.60 hPa65.00 %6.12 km/hSW23.40 °C15.20 °C 
16:30:0022.50 °C1014.70 hPa64.00 %15.40 °C 
16:15:0023.40 °C1014.50 hPa62.00 %15.70 °C 
16:00:0023.70 °C1014.50 hPa63.00 %16.20 °C 
15:45:0022.90 °C1014.50 hPa65.00 %16.00 °C 
15:30:0021.30 °C1014.70 hPa66.00 %14.70 °C 
15:15:0021.40 °C1014.80 hPa64.00 %14.30 °C 
15:00:0021.80 °C1014.90 hPa63.00 %14.40 °C 
14:45:0022.10 °C1014.80 hPa61.00 %14.20 °C 
14:30:0022.90 °C1014.90 hPa60.00 %14.70 °C 
14:15:0023.00 °C1014.80 hPa59.00 %14.60 °C 
14:00:0022.50 °C1014.80 hPa62.00 %14.90 °C 
13:45:0021.80 °C1015.00 hPa60.00 %13.70 °C 
13:30:0022.60 °C1014.90 hPa57.00 %5.76 km/hSSW24.00 °C13.70 °C 
13:15:0022.30 °C1014.60 hPa59.00 %13.90 °C 
13:00:0022.30 °C1014.50 hPa59.00 %13.90 °C 
12:45:0022.60 °C1014.50 hPa58.00 %13.90 °C 
12:30:0021.60 °C1014.70 hPa60.00 %13.50 °C 
12:15:0021.30 °C1014.80 hPa63.00 %14.00 °C 
12:00:0021.10 °C1014.80 hPa61.00 %13.30 °C 
11:45:0020.90 °C1014.70 hPa62.00 %13.40 °C 
11:30:0021.30 °C1014.50 hPa61.00 %13.50 °C 
11:15:0021.00 °C1014.50 hPa63.00 %13.70 °C 
11:00:0020.50 °C1014.50 hPa65.00 %13.70 °C 
10:45:0020.60 °C1014.50 hPa65.00 %3.96 km/hW20.60 °C13.80 °C 
10:30:0020.60 °C1014.30 hPa64.00 %13.60 °C 
10:15:0019.50 °C1014.20 hPa67.00 %13.20 °C 
10:00:0019.90 °C1014.30 hPa67.00 %13.60 °C 
09:45:0019.60 °C1014.30 hPa71.00 %14.20 °C 
09:30:0019.20 °C1014.20 hPa73.00 %14.20 °C 
09:15:0018.60 °C1014.20 hPa72.00 %13.50 °C 
09:00:0018.50 °C1014.20 hPa74.00 %13.80 °C 
08:45:0018.20 °C1014.00 hPa74.00 %13.50 °C 
08:30:0018.30 °C1013.90 hPa78.00 %14.40 °C 
08:15:0017.60 °C1013.90 hPa82.00 %14.50 °C 
08:00:0016.60 °C1013.70 hPa84.00 %13.90 °C 
07:45:0016.90 °C1013.80 hPa85.00 %14.40 °C 
07:30:0015.90 °C1013.70 hPa90.00 %14.30 °C 
07:15:0014.30 °C1013.60 hPa90.00 %12.70 °C 
07:00:0014.10 °C1013.60 hPa91.00 %12.70 °C 
06:45:0013.50 °C1013.60 hPa91.00 %12.10 °C 
06:30:0013.30 °C1013.50 hPa91.00 %11.90 °C 
06:15:0012.80 °C1013.30 hPa91.00 %11.40 °C 
06:00:0012.40 °C1013.40 hPa91.00 %11.00 °C 
05:45:0011.80 °C1013.20 hPa91.00 %10.40 °C 
05:30:0011.40 °C1013.20 hPa90.00 %9.80 °C 
05:15:0011.40 °C1013.10 hPa89.00 %9.70 °C 
05:00:0011.90 °C1013.00 hPa89.00 %10.10 °C 
04:45:0012.20 °C1012.90 hPa89.00 %10.40 °C 
04:30:0012.50 °C1012.90 hPa89.00 %10.70 °C 
04:15:0012.80 °C1012.80 hPa89.00 %11.00 °C 
04:00:0013.00 °C1012.90 hPa89.00 %11.20 °C 
03:45:0013.20 °C1012.90 hPa88.00 %11.30 °C 
03:30:0013.40 °C1012.80 hPa88.00 %11.50 °C 
03:15:0013.80 °C1012.70 hPa87.00 %11.70 °C 
03:00:0014.30 °C1012.70 hPa87.00 %12.20 °C 
02:45:0014.60 °C1012.90 hPa87.00 %12.50 °C 
02:30:0014.80 °C1012.80 hPa87.00 %12.70 °C 
02:15:0014.80 °C1012.60 hPa87.00 %12.70 °C 
02:00:0014.90 °C1012.50 hPa87.00 %12.80 °C 
01:45:0015.10 °C1012.60 hPa87.00 %13.00 °C 
01:30:0015.30 °C1012.50 hPa87.00 %13.20 °C 
01:15:0015.80 °C1012.30 hPa86.00 %13.50 °C 
01:00:0016.40 °C1012.20 hPa86.00 %14.10 °C 
00:45:0016.80 °C1011.60 hPa89.00 %6.12 km/hSW17.30 °C15.00 °C 
00:30:0016.50 °C1011.40 hPa89.00 %14.70 °C 
00:15:0016.40 °C1011.30 hPa88.00 %14.40 °C 
00:00:0016.40 °C1011.40 hPa88.00 %14.40 °C 

Permanenter Link zu dieser Seite: Wetter im Erzgebirge am 20.07.2015
Performance-Info: Die Erstellung der Seite / Statistik(en) / Tabelle(n) erforderte 5 Datenbankserver-Abfrage(n) und dauerte 102 Millisekunden. (Dieser Messwert ist von der Gesamt-Auslastung des Servers abhängig.)
Erzgebirge - Wetter | Erzgebirge - Wetter (Mobilgeräte) | Komplette Klimadatenbank